Item Display Status Humidity-temperature Sensor

Elevation Above Sea Level: 3 m

 

Deployed Sensor

  • Serial Number: 20224804
  • NDBC Property Number: 42152
  • Start Date: 1/26/2023 (14:38:11 Z)
  • End Date: Currently Active
Relative Humidity [%]     6 entries per hour
Showing data from 2/23/2024 (06:00:00 Z) to 2/22/2024 (00:00:01 Z)
Previous Next [ Day | 3-Days | 7-Days ]
First Last
Prev [ Day | 3-Days | 7-Days ] Next
First Last

Start Time:     :
End Time:     :     
Time (in GMT) :00 :50 :40 :30 :20 :10
Previous Next [ Day | 3-Days | 7-Days ]
First Last
Prev [ Day | 3-Days | 7-Days ] Next
First Last


123 => good data
MM => data is determined as missing
-- => data not received/configured
Back to Top Back to Top
2/23/2024 06:00 to 5:10 86.73 85.95 84.95 84.13 82.97 82.27
2/23/2024 05:00 to 4:10 82.45 83.15 83.99 85.11 86.55 87.21
2/23/2024 04:00 to 3:10 87.85 88.03 87.81 87.75 87.83 87.63
2/23/2024 03:00 to 2:10 87.43 86.97 86.37 85.99 85.77 85.71
2/23/2024 02:00 to 1:10 85.71 85.81 85.67 85.37 84.97 84.83
2/23/2024 01:00 to 0:10 84.95 84.75 84.07 83.31 82.11 81.09
2/23/2024 00:00 to 23:10 80.59 81.01 81.61 82.11 81.89 82.99
2/22/2024 23:00 to 22:10 83.65 83.95 84.25 83.83 83.59 83.17
2/22/2024 22:00 to 21:10 83.09 83.57 84.75 84.55 84.15 84.21
2/22/2024 21:00 to 20:10 84.81 84.93 85.13 84.49 84.77 85.27
2/22/2024 20:00 to 19:10 86.07 86.21 86.03 86.31 86.69 86.85
2/22/2024 19:00 to 18:10 86.91 86.79 87.11 87.21 87.43 86.95
2/22/2024 18:00 to 17:10 87.27 87.09 86.91 87.21 87.45 87.99
2/22/2024 17:00 to 16:10 88.09 88.05 88.29 88.25 88.23 88.47
2/22/2024 16:00 to 15:10 88.63 88.53 88.55 88.41 88.31 87.99
2/22/2024 15:00 to 14:10 87.23 86.79 86.71 86.77 86.91 86.87
2/22/2024 14:00 to 13:10 86.75 86.85 87.41 87.69 88.29 89.01
2/22/2024 13:00 to 12:10 90.09 90.67 91.09 91.29 91.29 91.01
2/22/2024 12:00 to 11:10 90.97 90.99 91.33 91.69 91.93 91.61
2/22/2024 11:00 to 10:10 91.37 91.21 91.27 91.19 91.29 91.17
2/22/2024 10:00 to 9:10 90.91 90.77 90.69 90.59 90.61 90.93
2/22/2024 09:00 to 8:10 91.09 91.15 91.41 91.83 91.35 90.93
2/22/2024 08:00 to 7:10 90.83 91.05 91.37 91.11 91.09 91.25
2/22/2024 07:00 to 6:10 91.41 91.13 90.77 90.51 90.33 90.25
2/22/2024 06:00 to 5:10 90.37 90.29 90.33 90.01 89.53 89.27
2/22/2024 05:00 to 4:10 89.07 88.97 89.37 88.87 88.49 88.21
2/22/2024 04:00 to 3:10 87.99 87.95 87.69 87.65 87.93 87.89
2/22/2024 03:00 to 2:10 87.57 87.47 87.65 87.35 86.59 86.53
2/22/2024 02:00 to 1:10 86.37 86.73 86.93 86.53 86.33 85.97
2/22/2024 01:00 to 0:10 86.07 86.17 86.05 85.85 85.91 85.47

 

 

 

Air Temperature [°C]     6 entries per hour
Showing data from 2/23/2024 (06:00:00 Z) to 2/22/2024 (00:00:01 Z)
Previous Next [ Day | 3-Days | 7-Days ]
First Last
Prev [ Day | 3-Days | 7-Days ] Next
First Last

Start Time:     :
End Time:     :     
Time (in GMT) :00 :50 :40 :30 :20 :10
Previous Next [ Day | 3-Days | 7-Days ]
First Last
Prev [ Day | 3-Days | 7-Days ] Next
First Last


123 => good data
MM => data is determined as missing
-- => data not received/configured
Back to Top Back to Top
2/23/2024 06:00 to 5:10 27.63 27.72 27.77 27.82 27.80 27.88
2/23/2024 05:00 to 4:10 27.70 27.64 27.62 27.60 27.55 27.50
2/23/2024 04:00 to 3:10 27.50 27.63 27.62 27.53 27.54 27.58
2/23/2024 03:00 to 2:10 27.52 27.70 27.72 27.67 27.70 27.70
2/23/2024 02:00 to 1:10 27.57 27.61 27.66 27.73 27.74 27.69
2/23/2024 01:00 to 0:10 27.63 27.76 27.80 27.82 28.09 28.23
2/23/2024 00:00 to 23:10 28.16 28.13 28.13 28.18 28.06 27.86
2/22/2024 23:00 to 22:10 27.90 27.89 27.79 27.83 27.90 27.92
2/22/2024 22:00 to 21:10 27.77 27.69 27.81 27.82 27.75 27.67
2/22/2024 21:00 to 20:10 27.81 27.61 27.79 27.73 27.64 27.51
2/22/2024 20:00 to 19:10 27.61 27.63 27.61 27.54 27.63 27.57
2/22/2024 19:00 to 18:10 27.52 27.56 27.43 27.50 27.48 27.52
2/22/2024 18:00 to 17:10 27.42 27.56 27.43 27.36 27.38 27.29
2/22/2024 17:00 to 16:10 27.41 27.29 27.24 27.39 27.34 27.45
2/22/2024 16:00 to 15:10 27.48 27.45 27.41 27.43 27.46 27.59
2/22/2024 15:00 to 14:10 27.62 27.57 27.59 27.60 27.60 27.62
2/22/2024 14:00 to 13:10 27.57 27.44 27.47 27.49 27.32 27.18
2/22/2024 13:00 to 12:10 27.06 27.00 26.91 26.89 26.97 26.88
2/22/2024 12:00 to 11:10 26.93 26.82 26.80 26.78 26.91 26.93
2/22/2024 11:00 to 10:10 27.01 26.93 26.91 26.93 26.97 27.03
2/22/2024 10:00 to 9:10 27.01 27.05 27.08 27.10 27.10 27.09
2/22/2024 09:00 to 8:10 27.05 27.19 26.97 27.22 27.18 27.14
2/22/2024 08:00 to 7:10 27.19 27.16 27.28 27.15 27.18 27.11
2/22/2024 07:00 to 6:10 27.21 27.34 27.31 27.45 27.30 27.39
2/22/2024 06:00 to 5:10 27.30 27.36 27.37 27.41 27.41 27.53
2/22/2024 05:00 to 4:10 27.52 27.41 27.54 27.44 27.54 27.54
2/22/2024 04:00 to 3:10 27.54 27.55 27.62 27.57 27.54 27.58
2/22/2024 03:00 to 2:10 27.64 27.46 27.64 27.69 27.57 27.61
2/22/2024 02:00 to 1:10 27.53 27.54 27.55 27.54 27.57 27.59
2/22/2024 01:00 to 0:10 27.54 27.54 27.52 27.56 27.56 27.49